Time;durP1;ratioP1;P1;durP2;ratioP2;P2;SDS_P1;SDS_P2;PMS_P1;PMS_P2;Temp;Humidity;BMP_temperature;BMP_pressure;BME280_temperature;BME280_humidity;BME280_pressure;Samples;Min_cycle;Max_cycle;Signal;HPM_P1;HPM_P2
2022/01/23 00:00:19;;;;;;;5.72;5.22;;;1.60;99.90;;;;;;5034002;28;20033;-51
2022/01/23 00:03:00;;;;;;;5.32;4.82;;;1.60;99.90;;;;;;5033777;28;20036;-52
2022/01/23 00:05:33;;;;;;;5.15;4.75;;;1.60;99.90;;;;;;5033771;28;20033;-53
2022/01/23 00:07:58;;;;;;;5.78;5.28;;;1.50;99.90;;;;;;5033601;28;20029;-54
2022/01/23 00:10:24;;;;;;;5.35;4.90;;;1.60;99.90;;;;;;5033677;28;20033;-52
2022/01/23 00:12:55;;;;;;;4.78;4.38;;;1.60;99.90;;;;;;5033449;28;20017;-54
2022/01/23 00:18:05;;;;;;;5.00;4.60;;;1.60;99.90;;;;;;5033728;28;20087;-54
2022/01/23 00:20:31;;;;;;;5.20;4.78;;;1.60;99.90;;;;;;5033698;28;20029;-55
2022/01/23 00:23:10;;;;;;;5.63;5.13;;;1.50;99.90;;;;;;5030773;28;20041;-53
2022/01/23 00:30:20;;;;;;;5.70;5.20;;;1.60;99.90;;;;;;5013689;28;20080;-52
2022/01/23 00:31:21;;;;;;;5.07;4.68;;;1.50;99.90;;;;;;5013310;28;20022;-55
2022/01/23 00:33:47;;;;;;;4.72;4.32;;;1.60;99.90;;;;;;5013336;28;20037;-56
2022/01/23 00:36:13;;;;;;;5.18;4.70;;;1.60;99.90;;;;;;5013452;28;20033;-53
2022/01/23 00:38:39;;;;;;;5.07;4.68;;;1.70;99.90;;;;;;5013336;28;20112;-52
2022/01/23 00:41:04;;;;;;;5.03;4.63;;;1.70;99.90;;;;;;5013285;28;20021;-53
2022/01/23 00:43:32;;;;;;;5.38;4.88;;;1.60;99.90;;;;;;5013098;28;20072;-54
2022/01/23 00:49:02;;;;;;;10.27;5.43;;;1.60;99.90;;;;;;5013119;28;20032;-56
2022/01/23 00:51:33;;;;;;;5.47;4.97;;;1.60;99.90;;;;;;5012791;28;20037;-54
2022/01/23 00:54:00;;;;;;;5.20;4.80;;;1.60;99.90;;;;;;5012674;28;20022;-54
2022/01/23 00:56:26;;;;;;;5.20;4.75;;;1.60;99.90;;;;;;5012402;28;20049;-54
2022/01/23 00:58:52;;;;;;;5.10;4.70;;;1.60;99.90;;;;;;5013028;28;20462;-52
2022/01/23 01:01:18;;;;;;;6.03;5.53;;;1.60;99.90;;;;;;5013214;28;20034;-52
2022/01/23 01:03:44;;;;;;;5.00;4.60;;;1.60;99.90;;;;;;5012770;28;20042;-53
2022/01/23 01:06:10;;;;;;;4.25;3.85;;;1.60;99.90;;;;;;5012735;28;20030;-54
2022/01/23 01:08:36;;;;;;;4.53;4.20;;;1.60;99.90;;;;;;5013045;28;20022;-54
2022/01/23 01:30:42;;;;;;;5.32;3.53;;;1.60;99.90;;;;;;5012587;28;20092;-52
2022/01/23 01:35:50;;;;;;;4.80;4.40;;;1.60;99.90;;;;;;5012408;28;20026;-55
2022/01/23 01:38:16;;;;;;;3.72;3.45;;;1.60;99.90;;;;;;5016696;28;20109;-55
2022/01/23 01:40:41;;;;;;;8.57;5.25;;;1.60;99.90;;;;;;5011917;28;20109;-53
2022/01/23 01:43:07;;;;;;;3.97;3.67;;;1.60;99.90;;;;;;5011604;28;20034;-56
2022/01/23 01:45:34;;;;;;;4.03;3.72;;;1.60;99.90;;;;;;5012087;28;20113;-53
2022/01/23 01:48:01;;;;;;;4.20;3.85;;;1.60;99.90;;;;;;5010941;28;20109;-53
2022/01/23 01:50:29;;;;;;;2.92;2.75;;;1.60;99.90;;;;;;5011131;28;20432;-53
2022/01/23 01:52:55;;;;;;;3.13;2.92;;;1.60;99.90;;;;;;5010736;28;20476;-55
2022/01/23 01:55:31;;;;;;;3.50;3.30;;;1.60;99.90;;;;;;5011207;28;20113;-56
2022/01/23 01:58:02;;;;;;;3.50;3.30;;;1.60;99.90;;;;;;5010949;28;20022;-54
2022/01/23 02:00:41;;;;;;;3.50;3.28;;;1.60;99.90;;;;;;5011315;28;20025;-54
2022/01/23 02:03:34;;;;;;;3.17;2.97;;;1.60;99.90;;;;;;5010938;28;20026;-53
2022/01/23 02:08:38;;;;;;;3.35;3.15;;;1.60;99.90;;;;;;5010900;28;20533;-56
2022/01/23 02:11:39;;;;;;;3.58;3.28;;;1.60;99.90;;;;;;5011950;28;20025;-52
2022/01/23 02:14:29;;;;;;;3.72;3.42;;;1.60;99.90;;;;;;5010212;28;20021;-55
2022/01/23 02:25:30;;;;;;;5.00;4.55;;;1.50;99.90;;;;;;5036702;28;20391;-53
2022/01/23 02:55:12;;;;;;;5.00;4.60;;;1.50;99.90;;;;;;5052475;28;20036;-54
2022/01/23 03:00:12;;;;;;;4.65;4.28;;;1.40;99.90;;;;;;5054750;28;20051;-56
2022/01/23 03:02:44;;;;;;;4.32;4.03;;;1.40;99.90;;;;;;5053634;28;20040;-54
2022/01/23 03:05:13;;;;;;;4.60;4.22;;;1.50;99.90;;;;;;5054867;28;20021;-54
2022/01/23 03:10:17;;;;;;;4.35;3.95;;;1.40;99.90;;;;;;5054916;28;20028;-53
2022/01/23 03:28:39;;;;;;;3.78;3.47;;;1.40;99.90;;;;;;5054611;28;20029;-51
2022/01/23 03:31:24;;;;;;;4.35;4.05;;;1.40;99.90;;;;;;5054459;28;20071;-52
2022/01/23 03:33:50;;;;;;;4.30;4.00;;;1.40;99.90;;;;;;5054260;28;20590;-51
2022/01/23 03:36:16;;;;;;;4.22;3.85;;;1.40;99.90;;;;;;5054431;28;20025;-55
2022/01/23 03:38:42;;;;;;;4.30;3.90;;;1.50;99.90;;;;;;5054300;28;20033;-54
2022/01/23 03:41:09;;;;;;;5.53;4.85;;;1.50;99.90;;;;;;5054227;28;20033;-52
2022/01/23 03:43:39;;;;;;;4.65;4.25;;;1.50;99.90;;;;;;5054322;28;20432;-54
2022/01/23 03:51:21;;;;;;;6.28;5.35;;;1.60;99.90;;;;;;5054295;28;20079;-54
2022/01/23 03:53:47;;;;;;;6.13;5.53;;;1.70;99.90;;;;;;5053968;28;20021;-55
2022/01/23 03:56:14;;;;;;;7.28;5.75;;;1.70;99.90;;;;;;5053941;28;20097;-54
2022/01/23 03:58:40;;;;;;;6.75;5.82;;;1.80;99.90;;;;;;5053860;28;20483;-57
2022/01/23 04:01:06;;;;;;;8.70;6.60;;;1.80;99.90;;;;;;5053663;28;20025;-53
2022/01/23 04:03:34;;;;;;;6.85;6.15;;;1.80;99.90;;;;;;5053883;28;20600;-52
2022/01/23 04:05:59;;;;;;;8.52;7.45;;;1.80;99.90;;;;;;5053166;28;20021;-55
2022/01/23 04:08:25;;;;;;;8.07;6.78;;;1.80;99.90;;;;;;5053628;28;20108;-54
2022/01/23 04:10:52;;;;;;;13.05;8.75;;;1.80;99.90;;;;;;5047605;28;20041;-53
2022/01/23 04:13:27;;;;;;;12.48;8.75;;;1.80;99.90;;;;;;5033932;28;20021;-52
2022/01/23 04:16:10;;;;;;;12.40;9.23;;;1.70;99.90;;;;;;5033372;28;20081;-53
2022/01/23 04:32:24;;;;;;;20.95;12.80;;;1.70;99.90;;;;;;5033296;28;20036;-55
2022/01/23 04:45:54;;;;;;;21.00;11.80;;;1.60;99.90;;;;;;5032569;28;20063;-54
2022/01/23 05:04:14;;;;;;;35.60;16.73;;;1.70;99.90;;;;;;5032875;28;20026;-56
2022/01/23 05:06:46;;;;;;;23.05;14.38;;;1.70;99.90;;;;;;5032426;28;20025;-55
2022/01/23 05:09:14;;;;;;;22.25;13.57;;;1.70;99.90;;;;;;5032849;28;20044;-56
2022/01/23 05:11:50;;;;;;;20.95;12.98;;;1.70;99.90;;;;;;5019968;28;20018;-56
2022/01/23 05:14:21;;;;;;;27.63;14.68;;;1.70;99.90;;;;;;5012707;28;20734;-54
2022/01/23 05:16:47;;;;;;;24.52;14.70;;;1.70;99.90;;;;;;5012746;28;20540;-54
2022/01/23 05:19:13;;;;;;;40.22;19.45;;;1.60;99.90;;;;;;5011691;28;20022;-52
2022/01/23 05:24:15;;;;;;;34.28;17.48;;;1.70;99.90;;;;;;5012579;28;20080;-53
2022/01/23 05:26:45;;;;;;;26.95;16.45;;;1.60;99.90;;;;;;5010513;28;20036;-55
2022/01/23 05:29:12;;;;;;;27.77;15.13;;;1.70;99.90;;;;;;5012512;28;20028;-52
2022/01/23 05:31:38;;;;;;;28.42;15.70;;;1.70;99.90;;;;;;5012149;28;20031;-56
2022/01/23 05:34:04;;;;;;;25.35;14.85;;;1.70;99.90;;;;;;5012244;28;20050;-53
2022/01/23 05:36:29;;;;;;;27.85;15.70;;;1.70;99.90;;;;;;5011826;28;20544;-53
2022/01/23 05:38:55;;;;;;;24.30;15.50;;;1.80;99.90;;;;;;5011116;28;20040;-53
2022/01/23 05:41:21;;;;;;;26.80;15.73;;;1.80;99.90;;;;;;5011876;28;20018;-55
2022/01/23 05:43:46;;;;;;;100.40;35.08;;;1.80;99.90;;;;;;5010536;28;20117;-53
2022/01/23 05:46:12;;;;;;;41.47;18.70;;;1.70;99.90;;;;;;5012136;28;20038;-54
2022/01/23 05:48:38;;;;;;;137.02;45.10;;;1.80;99.90;;;;;;5012258;28;20068;-56
2022/01/23 05:51:05;;;;;;;29.58;17.15;;;1.80;99.90;;;;;;5012008;28;20033;-51
2022/01/23 05:53:30;;;;;;;46.90;22.38;;;1.80;99.90;;;;;;5012159;28;20049;-56
2022/01/23 05:55:56;;;;;;;24.10;15.23;;;1.70;99.90;;;;;;5012109;28;20038;-53
2022/01/23 05:58:22;;;;;;;32.55;17.70;;;1.80;99.90;;;;;;5012017;28;20446;-56
2022/01/23 06:00:48;;;;;;;35.55;17.77;;;1.80;99.90;;;;;;5011739;28;20021;-54
2022/01/23 06:03:13;;;;;;;29.90;18.00;;;1.70;99.90;;;;;;5011184;28;20124;-55
2022/01/23 06:05:39;;;;;;;33.03;21.08;;;1.80;99.90;;;;;;5011381;28;20042;-52
2022/01/23 06:08:05;;;;;;;28.83;18.13;;;1.80;99.90;;;;;;5010585;28;20026;-55
2022/01/23 06:10:46;;;;;;;24.77;15.18;;;1.80;99.90;;;;;;5013956;28;20018;-54
2022/01/23 06:13:11;;;;;;;26.17;16.05;;;1.80;99.90;;;;;;5031594;28;20108;-52
2022/01/23 06:15:37;;;;;;;23.00;15.73;;;1.90;99.90;;;;;;5030944;28;20125;-56
2022/01/23 06:18:03;;;;;;;23.15;15.40;;;1.90;99.90;;;;;;5031684;28;20042;-55
2022/01/23 06:20:28;;;;;;;26.15;14.75;;;1.80;99.90;;;;;;5031095;28;20029;-51
2022/01/23 06:22:54;;;;;;;29.27;15.10;;;1.90;99.90;;;;;;5030007;28;20030;-53
2022/01/23 06:25:20;;;;;;;24.30;15.27;;;1.90;99.90;;;;;;5031373;28;20044;-51
2022/01/23 06:27:55;;;;;;;28.15;16.73;;;1.90;99.90;;;;;;5031273;28;20076;-54
2022/01/23 06:33:43;;;;;;;27.17;16.83;;;1.90;99.90;;;;;;5037595;28;20040;-54
2022/01/23 06:36:08;;;;;;;32.42;18.55;;;1.80;99.90;;;;;;5037797;28;20427;-53
2022/01/23 06:38:35;;;;;;;26.83;17.80;;;1.80;99.90;;;;;;5037688;28;20087;-55
2022/01/23 06:41:02;;;;;;;28.42;17.77;;;1.80;99.90;;;;;;5035726;28;20480;-55
2022/01/23 06:43:27;;;;;;;28.65;17.20;;;1.80;99.90;;;;;;5038028;28;20116;-53
2022/01/23 06:45:53;;;;;;;32.92;20.10;;;1.80;99.90;;;;;;5036646;28;20138;-54
2022/01/23 06:48:18;;;;;;;30.05;17.42;;;1.80;99.90;;;;;;5037721;28;20021;-53
2022/01/23 06:50:44;;;;;;;27.65;17.05;;;1.80;99.90;;;;;;5037575;28;20025;-54
2022/01/23 06:53:10;;;;;;;31.67;19.17;;;1.80;99.90;;;;;;5037941;28;20030;-54
2022/01/23 06:55:35;;;;;;;31.52;18.55;;;1.80;99.90;;;;;;5037680;28;20033;-53
2022/01/23 06:58:01;;;;;;;26.92;17.75;;;1.90;99.90;;;;;;5037389;28;20461;-55
2022/01/23 07:00:27;;;;;;;26.70;17.80;;;1.90;99.90;;;;;;5037804;28;20083;-52
2022/01/23 07:02:52;;;;;;;26.75;18.83;;;1.90;99.90;;;;;;5037696;28;20045;-56
2022/01/23 07:05:18;;;;;;;29.75;18.02;;;1.90;99.90;;;;;;5037671;28;20400;-54
2022/01/23 07:07:44;;;;;;;31.17;18.85;;;1.90;99.90;;;;;;5037504;28;20029;-52
2022/01/23 07:10:09;;;;;;;29.08;19.15;;;1.90;99.90;;;;;;5037430;28;20021;-55
2022/01/23 07:12:35;;;;;;;36.88;18.67;;;1.90;99.90;;;;;;5016485;28;20026;-52
2022/01/23 07:15:01;;;;;;;35.70;22.58;;;2.00;99.90;;;;;;5015858;28;20061;-55
2022/01/23 07:17:26;;;;;;;83.60;46.70;;;1.90;99.90;;;;;;5017623;28;20490;-55
2022/01/23 07:19:52;;;;;;;34.13;20.65;;;1.90;99.90;;;;;;5049316;28;20084;-54
2022/01/23 07:22:18;;;;;;;38.83;22.02;;;2.00;99.90;;;;;;5017488;28;20097;-56
2022/01/23 07:24:43;;;;;;;37.55;20.60;;;2.00;99.90;;;;;;5017207;28;20030;-54
2022/01/23 07:27:17;;;;;;;57.13;33.25;;;2.00;99.90;;;;;;5017389;28;20029;-55
2022/01/23 07:29:44;;;;;;;33.65;20.13;;;1.90;99.90;;;;;;5017445;28;20442;-52
2022/01/23 07:32:10;;;;;;;36.17;21.20;;;2.00;99.90;;;;;;5017743;28;20049;-53
2022/01/23 07:34:36;;;;;;;34.83;19.90;;;2.00;99.90;;;;;;5017831;28;20071;-54
2022/01/23 07:37:01;;;;;;;37.00;21.38;;;2.10;99.90;;;;;;5017004;28;20409;-53
2022/01/23 07:39:27;;;;;;;33.97;21.15;;;2.10;99.90;;;;;;5015901;28;20084;-55
2022/01/23 07:41:53;;;;;;;33.53;20.70;;;2.10;99.90;;;;;;5014292;28;20454;-55
2022/01/23 07:44:19;;;;;;;34.50;20.25;;;2.20;99.90;;;;;;5014004;28;20634;-54
2022/01/23 07:46:45;;;;;;;31.02;19.08;;;2.20;99.90;;;;;;5012937;28;20029;-52
2022/01/23 07:49:11;;;;;;;31.75;20.58;;;2.20;99.90;;;;;;5014118;28;20119;-55
2022/01/23 07:51:36;;;;;;;35.63;20.20;;;2.30;99.90;;;;;;5014102;28;20018;-54
2022/01/23 07:54:03;;;;;;;31.40;19.30;;;2.30;99.90;;;;;;5014373;28;20026;-55
2022/01/23 07:56:29;;;;;;;29.90;19.15;;;2.30;99.90;;;;;;5014275;28;20030;-54
2022/01/23 07:58:55;;;;;;;38.63;21.70;;;2.30;99.90;;;;;;5014207;28;20354;-55
2022/01/23 08:01:20;;;;;;;32.72;21.58;;;2.30;99.90;;;;;;5014171;28;20034;-52
2022/01/23 08:03:46;;;;;;;34.28;20.77;;;2.40;99.90;;;;;;5014046;28;20041;-53
2022/01/23 08:06:12;;;;;;;32.05;20.08;;;2.40;99.90;;;;;;5014085;28;20054;-51
2022/01/23 08:08:39;;;;;;;35.30;21.90;;;2.40;99.90;;;;;;5013973;28;20076;-53
2022/01/23 08:11:05;;;;;;;33.95;20.30;;;2.40;99.90;;;;;;5021731;28;20346;-53
2022/01/23 08:13:31;;;;;;;32.03;20.60;;;2.50;99.90;;;;;;5033918;28;20072;-54
2022/01/23 08:15:57;;;;;;;36.72;20.05;;;2.50;99.90;;;;;;5033585;28;20061;-56
2022/01/23 08:18:22;;;;;;;29.27;19.58;;;2.60;99.90;;;;;;5033731;28;20108;-55
2022/01/23 08:20:48;;;;;;;34.63;20.77;;;2.60;99.90;;;;;;5032295;28;20052;-52
2022/01/23 08:23:14;;;;;;;33.10;20.92;;;2.60;99.90;;;;;;5033319;28;20592;-53
2022/01/23 08:25:40;;;;;;;33.72;22.08;;;2.60;99.90;;;;;;5030816;28;20710;-53
2022/01/23 08:28:07;;;;;;;42.67;23.25;;;2.60;99.90;;;;;;5031002;28;20022;-54
2022/01/23 08:30:33;;;;;;;33.35;20.75;;;2.50;99.90;;;;;;5032505;28;20025;-53
2022/01/23 08:32:59;;;;;;;36.00;23.52;;;2.60;99.90;;;;;;5032066;28;20663;-53
2022/01/23 08:35:26;;;;;;;37.00;22.58;;;2.60;99.90;;;;;;5032249;28;20022;-55
2022/01/23 08:37:52;;;;;;;32.45;22.38;;;2.70;99.90;;;;;;5032699;28;20029;-55
2022/01/23 08:40:34;;;;;;;33.42;20.95;;;2.70;99.90;;;;;;5032833;28;20097;-54
2022/01/23 08:42:59;;;;;;;31.63;20.55;;;2.60;99.90;;;;;;5032563;28;20017;-51
2022/01/23 08:45:25;;;;;;;34.20;22.40;;;2.60;99.90;;;;;;5032724;28;20018;-53
2022/01/23 08:47:51;;;;;;;33.88;21.02;;;2.60;99.90;;;;;;5032013;28;20087;-55
2022/01/23 08:50:16;;;;;;;41.97;25.02;;;2.60;99.90;;;;;;5032243;28;20071;-51
2022/01/23 08:52:42;;;;;;;42.65;23.67;;;2.60;99.90;;;;;;5002839;28;20060;-51
2022/01/23 08:58:30;;;;;;;33.83;22.10;;;2.70;99.90;;;;;;5021555;28;20039;-56
2022/01/23 09:00:55;;;;;;;37.13;22.25;;;2.70;99.90;;;;;;5021535;28;20030;-53
2022/01/23 09:03:21;;;;;;;39.97;22.92;;;2.80;99.90;;;;;;5022325;28;20029;-54
2022/01/23 09:05:46;;;;;;;36.10;21.88;;;2.70;99.90;;;;;;5021044;28;20040;-55
2022/01/23 09:08:12;;;;;;;37.78;23.15;;;2.70;99.90;;;;;;5020808;28;20053;-52
2022/01/23 09:10:51;;;;;;;37.15;21.85;;;2.70;99.90;;;;;;5017070;28;20033;-53
2022/01/23 09:13:32;;;;;;;38.88;22.48;;;2.80;99.90;;;;;;5021040;28;20045;-57
2022/01/23 09:15:58;;;;;;;35.83;22.40;;;2.80;99.90;;;;;;5021307;28;20045;-57
2022/01/23 09:18:24;;;;;;;35.35;21.55;;;2.90;99.90;;;;;;5021439;28;20045;-58
2022/01/23 09:20:49;;;;;;;34.05;22.42;;;3.00;99.90;;;;;;5021323;28;20037;-55
2022/01/23 09:23:15;;;;;;;39.10;26.75;;;3.10;99.90;;;;;;5021709;28;20026;-54
2022/01/23 09:25:41;;;;;;;37.80;22.63;;;3.00;99.90;;;;;;5021885;28;20026;-56
2022/01/23 09:28:12;;;;;;;37.08;22.30;;;3.10;99.90;;;;;;5006539;28;20038;-51
2022/01/23 09:30:40;;;;;;;33.95;21.77;;;3.10;99.90;;;;;;5019926;28;20473;-56
2022/01/23 09:33:06;;;;;;;37.25;23.35;;;3.10;99.90;;;;;;5018127;28;20472;-55
2022/01/23 09:35:32;;;;;;;41.85;25.42;;;3.00;99.90;;;;;;5019471;28;20042;-57
2022/01/23 09:37:57;;;;;;;38.28;23.63;;;3.00;99.90;;;;;;5019992;28;20036;-53
2022/01/23 09:40:23;;;;;;;39.05;23.35;;;3.00;99.90;;;;;;5021328;28;20033;-52
2022/01/23 09:43:01;;;;;;;39.60;23.40;;;3.10;99.90;;;;;;5019686;28;20030;-53
2022/01/23 09:45:30;;;;;;;43.70;26.85;;;3.20;99.90;;;;;;5002728;28;20026;-56
2022/01/23 09:47:56;;;;;;;41.35;24.15;;;3.10;99.90;;;;;;5020592;28;20033;-53
2022/01/23 09:50:22;;;;;;;39.17;24.15;;;3.10;99.90;;;;;;5021001;28;20030;-56
2022/01/23 09:52:52;;;;;;;38.63;24.73;;;3.30;99.90;;;;;;5020042;28;20469;-55
2022/01/23 09:55:19;;;;;;;44.00;26.63;;;3.30;99.90;;;;;;5020957;28;20537;-56
2022/01/23 09:57:48;;;;;;;35.78;23.85;;;3.20;99.90;;;;;;5020596;28;20038;-55
2022/01/23 10:00:20;;;;;;;35.58;22.75;;;3.40;99.90;;;;;;5020116;28;20056;-53
2022/01/23 10:02:50;;;;;;;34.40;20.83;;;3.50;99.90;;;;;;5021024;28;20029;-57
2022/01/23 10:05:16;;;;;;;39.05;25.92;;;3.60;99.90;;;;;;5018476;28;20435;-54
2022/01/23 10:07:43;;;;;;;41.13;23.85;;;3.30;99.90;;;;;;5020867;28;20033;-54
2022/01/23 10:10:18;;;;;;;36.15;21.85;;;3.40;99.90;;;;;;5021954;28;20026;-53
2022/01/23 10:12:54;;;;;;;42.22;23.23;;;3.40;99.90;;;;;;5011001;28;20407;-53
2022/01/23 10:15:21;;;;;;;38.67;21.90;;;3.40;99.90;;;;;;5011485;28;20081;-58
2022/01/23 10:17:47;;;;;;;37.42;22.48;;;3.50;99.90;;;;;;5011334;28;20029;-54
2022/01/23 10:20:14;;;;;;;40.85;25.00;;;3.60;99.90;;;;;;5011690;28;20034;-55
2022/01/23 10:22:43;;;;;;;48.38;26.48;;;3.50;99.90;;;;;;5011747;28;20033;-55
2022/01/23 10:25:12;;;;;;;37.30;22.48;;;3.70;99.90;;;;;;5011652;28;20030;-57
2022/01/23 10:28:06;;;;;;;34.20;21.42;;;3.60;99.90;;;;;;5011802;28;20026;-58
2022/01/23 10:30:33;;;;;;;34.63;21.10;;;3.80;99.90;;;;;;5011631;28;20030;-57
2022/01/23 10:33:32;;;;;;;32.33;20.85;;;3.80;99.90;;;;;;5011569;28;20129;-55
2022/01/23 10:36:03;;;;;;;33.33;20.88;;;3.70;99.90;;;;;;5018451;28;20038;-57
2022/01/23 10:38:47;;;;;;;31.25;20.48;;;3.60;99.90;;;;;;5029117;28;20485;-55
2022/01/23 10:46:51;;;;;;;33.72;20.90;;;3.70;99.90;;;;;;5011489;28;20083;-56
2022/01/23 10:49:17;;;;;;;31.38;19.65;;;3.50;99.90;;;;;;5012631;28;20026;-56
2022/01/23 10:51:49;;;;;;;30.80;19.98;;;3.70;99.90;;;;;;5011279;28;20022;-57
2022/01/23 10:54:15;;;;;;;33.88;20.73;;;3.80;99.90;;;;;;5011572;28;20046;-57
2022/01/23 10:56:58;;;;;;;29.92;20.38;;;3.70;99.90;;;;;;5013492;28;20392;-56
2022/01/23 10:59:24;;;;;;;42.58;25.17;;;3.70;99.90;;;;;;5030032;28;20116;-53
2022/01/23 11:02:03;;;;;;;29.63;19.23;;;3.60;99.90;;;;;;5030999;28;20026;-57
2022/01/23 11:04:29;;;;;;;27.23;18.65;;;3.80;99.90;;;;;;5030746;28;20025;-58
2022/01/23 11:07:02;;;;;;;30.30;19.60;;;3.70;99.90;;;;;;5029142;28;20030;-57
2022/01/23 11:09:37;;;;;;;32.83;19.25;;;3.90;99.90;;;;;;5031294;28;20053;-56
2022/01/23 11:12:14;;;;;;;30.75;19.10;;;3.90;99.90;;;;;;5030938;28;20022;-56
2022/01/23 11:17:26;;;;;;;26.55;19.58;;;3.90;99.90;;;;;;5018721;28;20053;-55
2022/01/23 11:20:01;;;;;;;31.90;19.55;;;3.90;99.90;;;;;;5023106;28;20036;-56
2022/01/23 11:22:32;;;;;;;26.90;18.75;;;4.00;99.90;;;;;;5023830;28;20079;-56
2022/01/23 11:25:05;;;;;;;28.92;19.25;;;4.00;99.90;;;;;;5023352;28;20091;-58
2022/01/23 11:27:38;;;;;;;30.07;21.43;;;4.10;99.90;;;;;;5023614;28;20176;-56
2022/01/23 11:30:06;;;;;;;;;;;3.90;99.90;;;;;;5024414;28;20060;-57
2022/01/23 11:32:38;;;;;;;26.05;17.70;;;3.80;99.90;;;;;;5022012;28;20303;-55
2022/01/23 11:35:09;;;;;;;28.30;19.52;;;4.10;99.90;;;;;;5015086;28;20084;-57
2022/01/23 11:37:44;;;;;;;25.17;17.40;;;4.20;99.90;;;;;;5021117;28;20029;-57
2022/01/23 11:40:27;;;;;;;26.30;18.80;;;4.00;99.90;;;;;;5010801;28;20366;-56
2022/01/23 11:54:02;;;;;;;26.10;17.70;;;3.90;99.90;;;;;;5007047;28;20034;-54
2022/01/23 11:56:29;;;;;;;24.50;17.35;;;3.90;99.90;;;;;;5022949;28;20051;-55
2022/01/23 11:59:16;;;;;;;28.92;20.00;;;3.90;99.90;;;;;;5023364;28;20109;-56
2022/01/23 12:02:14;;;;;;;24.02;16.30;;;3.70;99.90;;;;;;5021089;28;20029;-56
2022/01/23 12:04:42;;;;;;;26.73;19.10;;;3.80;99.90;;;;;;5015626;28;20669;-58
2022/01/23 12:07:17;;;;;;;26.98;17.92;;;3.80;99.90;;;;;;5022603;28;20156;-53
2022/01/23 12:10:02;;;;;;;30.23;19.25;;;3.80;99.90;;;;;;5014682;28;20389;-57
2022/01/23 12:12:40;;;;;;;38.35;24.13;;;3.80;99.90;;;;;;5022654;28;20033;-57
2022/01/23 12:16:29;;;;;;;28.38;19.77;;;3.70;99.90;;;;;;5021511;28;20069;-56
2022/01/23 12:18:22;;;;;;;32.90;22.20;;;3.70;99.90;;;;;;5019737;28;20472;-55
2022/01/23 12:20:51;;;;;;;29.30;20.70;;;3.90;99.90;;;;;;5022800;28;20057;-57
2022/01/23 12:23:17;;;;;;;30.65;19.33;;;4.00;99.90;;;;;;5022411;28;20108;-55
2022/01/23 12:25:46;;;;;;;29.70;18.92;;;3.80;99.90;;;;;;5022592;28;20036;-55
2022/01/23 12:28:31;;;;;;;29.23;19.95;;;3.90;99.90;;;;;;5005706;28;20029;-58
2022/01/23 12:31:26;;;;;;;29.88;19.63;;;3.90;99.90;;;;;;5004545;28;20127;-56
2022/01/23 12:33:56;;;;;;;28.70;20.10;;;3.90;99.90;;;;;;5011587;28;20042;-55
2022/01/23 12:36:25;;;;;;;31.88;18.75;;;3.90;99.90;;;;;;5016244;28;20036;-54
2022/01/23 12:39:06;;;;;;;29.30;19.75;;;3.90;99.90;;;;;;5013573;28;20041;-57
2022/01/23 12:41:51;;;;;;;33.22;20.55;;;3.80;99.90;;;;;;5004201;28;20382;-56
2022/01/23 12:44:23;;;;;;;32.30;22.48;;;3.70;99.90;;;;;;5014933;28;20495;-56
2022/01/23 12:46:54;;;;;;;29.33;19.35;;;3.80;99.90;;;;;;5021086;28;20042;-56
2022/01/23 12:49:21;;;;;;;33.13;20.05;;;3.80;99.90;;;;;;5022432;28;20029;-56
2022/01/23 12:51:53;;;;;;;29.58;20.80;;;3.70;99.90;;;;;;5011288;28;20077;-54
2022/01/23 12:54:22;;;;;;;30.58;21.35;;;3.70;99.90;;;;;;5005391;28;20022;-55
2022/01/23 12:56:49;;;;;;;30.73;21.25;;;3.70;99.90;;;;;;5019000;28;20051;-57
2022/01/23 12:59:32;;;;;;;32.83;20.20;;;3.60;99.90;;;;;;5022173;28;20030;-57
2022/01/23 13:02:04;;;;;;;31.23;19.25;;;3.60;99.90;;;;;;5021101;28;20033;-53
2022/01/23 13:04:36;;;;;;;30.30;21.17;;;3.60;99.90;;;;;;5022113;28;20289;-56
2022/01/23 13:07:09;;;;;;;28.20;19.33;;;3.60;99.90;;;;;;5020791;28;20095;-56
2022/01/23 13:31:59;;;;;;;34.85;23.13;;;3.80;99.90;;;;;;5010627;28;20052;-53
2022/01/23 13:34:30;;;;;;;35.35;23.73;;;3.60;99.90;;;;;;5020748;28;20413;-56
2022/01/23 13:37:05;;;;;;;32.88;22.42;;;3.50;99.90;;;;;;5015003;28;20151;-58
2022/01/23 13:39:43;;;;;;;30.88;20.17;;;3.60;99.90;;;;;;5020251;28;20017;-56
2022/01/23 13:53:28;;;;;;;37.78;23.77;;;3.60;99.90;;;;;;5019141;28;20078;-56
2022/01/23 13:58:51;;;;;;;35.83;23.13;;;3.50;99.90;;;;;;5001665;28;20176;-56
2022/01/23 14:03:53;;;;;;;34.83;22.50;;;3.40;99.90;;;;;;5020693;28;20041;-54
2022/01/23 14:06:19;;;;;;;33.03;21.02;;;3.40;99.90;;;;;;5005256;28;20029;-57
2022/01/23 14:09:03;;;;;;;34.85;22.52;;;3.40;99.90;;;;;;5012936;28;20157;-56
2022/01/23 14:11:28;;;;;;;35.15;21.63;;;3.30;99.90;;;;;;5019734;28;20029;-53
2022/01/23 14:13:54;;;;;;;35.53;22.15;;;3.30;99.90;;;;;;5021050;28;20131;-56
2022/01/23 14:16:27;;;;;;;34.63;21.63;;;3.20;99.90;;;;;;5020660;28;20080;-58
2022/01/23 14:18:52;;;;;;;32.55;20.65;;;3.20;99.90;;;;;;5020616;28;20038;-57
2022/01/23 14:21:22;;;;;;;37.92;22.38;;;3.20;99.90;;;;;;5020033;28;20030;-56
2022/01/23 14:23:55;;;;;;;37.65;22.90;;;3.10;99.90;;;;;;5018256;28;20715;-57
2022/01/23 14:26:22;;;;;;;35.05;22.38;;;3.10;99.90;;;;;;5004621;28;20414;-57
2022/01/23 14:28:51;;;;;;;36.33;23.05;;;3.10;99.90;;;;;;5013785;28;20022;-55
2022/01/23 14:31:23;;;;;;;35.03;22.85;;;3.00;99.90;;;;;;5039106;28;20076;-54
2022/01/23 14:33:53;;;;;;;40.83;23.58;;;3.00;99.90;;;;;;5040302;28;20400;-56
2022/01/23 14:36:25;;;;;;;38.40;22.67;;;2.90;99.90;;;;;;5039710;28;20033;-57
2022/01/23 14:39:07;;;;;;;37.97;24.23;;;2.90;99.90;;;;;;5040069;28;20025;-56
2022/01/23 14:41:35;;;;;;;42.63;23.75;;;2.90;99.90;;;;;;5039363;28;20039;-52
2022/01/23 14:44:05;;;;;;;44.05;26.58;;;2.90;99.90;;;;;;5026167;28;20033;-57
2022/01/23 14:46:32;;;;;;;37.10;20.63;;;2.80;99.90;;;;;;5020320;28;20026;-57
2022/01/23 14:49:09;;;;;;;35.25;21.75;;;2.80;99.90;;;;;;5020239;28;20040;-53
2022/01/23 14:51:39;;;;;;;38.38;21.98;;;2.80;99.90;;;;;;5022844;28;20120;-55
2022/01/23 14:54:05;;;;;;;38.40;23.85;;;2.80;99.90;;;;;;5024410;28;20042;-56
2022/01/23 14:56:36;;;;;;;40.47;23.98;;;2.90;99.90;;;;;;5024906;28;20052;-54
2022/01/23 14:59:02;;;;;;;35.60;22.80;;;2.80;99.90;;;;;;5038569;28;20028;-53
2022/01/23 15:01:27;;;;;;;36.53;22.80;;;2.80;99.90;;;;;;5044170;28;20547;-55
2022/01/23 15:03:53;;;;;;;33.30;22.35;;;2.80;99.90;;;;;;5044455;28;20676;-55
2022/01/23 15:06:22;;;;;;;42.95;24.95;;;2.70;99.90;;;;;;5043568;28;20025;-56
2022/01/23 15:08:48;;;;;;;33.38;22.33;;;2.70;99.90;;;;;;5042377;28;20032;-55
2022/01/23 15:11:14;;;;;;;35.03;22.80;;;2.70;99.90;;;;;;5028298;28;20026;-56
2022/01/23 15:13:40;;;;;;;33.28;21.58;;;2.70;99.90;;;;;;5028340;28;20049;-53
2022/01/23 15:16:05;;;;;;;34.25;22.27;;;2.60;99.90;;;;;;5030776;28;20062;-54
2022/01/23 15:18:32;;;;;;;33.25;21.60;;;2.60;99.90;;;;;;5024006;28;20025;-55
2022/01/23 15:20:57;;;;;;;37.38;23.73;;;2.50;99.90;;;;;;5025623;28;20028;-55
2022/01/23 15:23:23;;;;;;;32.90;21.50;;;2.50;99.90;;;;;;5035869;28;20033;-53
2022/01/23 15:25:49;;;;;;;31.90;21.85;;;2.50;99.90;;;;;;5014601;28;20679;-55
2022/01/23 15:28:14;;;;;;;33.25;19.67;;;2.50;99.90;;;;;;5014523;28;20087;-56
2022/01/23 15:30:41;;;;;;;30.20;19.38;;;2.60;99.90;;;;;;5009310;28;20053;-52
2022/01/23 15:33:08;;;;;;;29.08;20.45;;;2.60;99.90;;;;;;5017885;28;20397;-56
2022/01/23 15:35:36;;;;;;;35.90;24.15;;;2.60;99.90;;;;;;5023742;28;20052;-56
2022/01/23 15:38:03;;;;;;;37.28;24.77;;;2.60;99.90;;;;;;5023968;28;20044;-52
2022/01/23 15:40:29;;;;;;;33.53;22.10;;;2.60;99.90;;;;;;5022643;28;20167;-56
2022/01/23 15:42:56;;;;;;;29.02;19.75;;;2.50;99.90;;;;;;5023566;28;20398;-57
2022/01/23 15:45:24;;;;;;;38.03;23.08;;;2.60;99.90;;;;;;5021497;28;20033;-55
2022/01/23 15:47:49;;;;;;;33.60;22.52;;;2.50;99.90;;;;;;5022210;28;20033;-56
2022/01/23 15:50:19;;;;;;;30.60;20.67;;;2.60;99.90;;;;;;5023377;28;20021;-54
2022/01/23 15:52:46;;;;;;;31.05;20.65;;;2.60;99.90;;;;;;5023402;28;20021;-57
2022/01/23 15:55:13;;;;;;;34.65;21.17;;;2.60;99.90;;;;;;5022726;28;20649;-55
2022/01/23 15:57:40;;;;;;;31.05;20.48;;;2.50;99.90;;;;;;5022995;28;20049;-57
2022/01/23 16:00:10;;;;;;;30.58;20.73;;;2.60;99.90;;;;;;5023097;28;20065;-55
2022/01/23 16:02:35;;;;;;;36.08;24.35;;;2.60;99.90;;;;;;5021699;28;20026;-55
2022/01/23 16:05:03;;;;;;;30.27;20.45;;;2.60;99.90;;;;;;5008010;28;20030;-56
2022/01/23 16:07:28;;;;;;;34.10;20.40;;;2.60;99.90;;;;;;5022111;28;20026;-56
2022/01/23 16:09:54;;;;;;;31.80;19.90;;;2.60;99.90;;;;;;5021548;28;20048;-56
2022/01/23 16:12:19;;;;;;;30.58;20.85;;;2.60;99.90;;;;;;5022007;28;20013;-55
2022/01/23 16:14:45;;;;;;;31.52;21.15;;;2.60;99.90;;;;;;5022567;28;20132;-56